sensor_id;sensor_type;location;lat;lon;timestamp;pressure;altitude;pressure_sealevel;temperature
19948;BMP180;10135;50.702;7.276;2023-12-29T06:01:16;98930.00;;;14.30
19948;BMP180;10135;50.702;7.276;2023-12-29T06:03:17;98940.00;;;14.30
19948;BMP180;10135;50.702;7.276;2023-12-29T06:05:18;98940.00;;;14.30
19948;BMP180;10135;50.702;7.276;2023-12-29T06:07:18;98927.00;;;14.30
19948;BMP180;10135;50.702;7.276;2023-12-29T06:09:19;98929.00;;;14.30
19948;BMP180;10135;50.702;7.276;2023-12-29T06:11:20;98937.00;;;14.30
19948;BMP180;10135;50.702;7.276;2023-12-29T06:13:21;98937.00;;;14.30
19948;BMP180;10135;50.702;7.276;2023-12-29T06:15:22;98935.00;;;14.30
19948;BMP180;10135;50.702;7.276;2023-12-29T06:17:23;98939.00;;;14.30
19948;BMP180;10135;50.702;7.276;2023-12-29T06:19:23;98936.00;;;14.30
19948;BMP180;10135;50.702;7.276;2023-12-29T06:21:24;98931.00;;;14.30
19948;BMP180;10135;50.702;7.276;2023-12-29T06:23:25;98927.00;;;14.30
19948;BMP180;10135;50.702;7.276;2023-12-29T06:25:26;98930.00;;;14.40
19948;BMP180;10135;50.702;7.276;2023-12-29T06:27:26;98937.00;;;14.40
19948;BMP180;10135;50.702;7.276;2023-12-29T06:29:28;98926.00;;;14.40
19948;BMP180;10135;50.702;7.276;2023-12-29T06:31:29;98920.00;;;14.40
19948;BMP180;10135;50.702;7.276;2023-12-29T06:33:29;98933.00;;;14.40
19948;BMP180;10135;50.702;7.276;2023-12-29T06:35:30;98928.00;;;14.40
19948;BMP180;10135;50.702;7.276;2023-12-29T06:37:31;98924.00;;;14.40
19948;BMP180;10135;50.702;7.276;2023-12-29T06:39:32;98923.00;;;14.40
19948;BMP180;10135;50.702;7.276;2023-12-29T06:41:32;98927.00;;;14.40
19948;BMP180;10135;50.702;7.276;2023-12-29T06:43:33;98915.00;;;14.40
19948;BMP180;10135;50.702;7.276;2023-12-29T06:45:34;98913.00;;;14.40
19948;BMP180;10135;50.702;7.276;2023-12-29T06:47:34;98918.00;;;14.40
19948;BMP180;10135;50.702;7.276;2023-12-29T06:49:35;98916.00;;;14.40
19948;BMP180;10135;50.702;7.276;2023-12-29T06:51:36;98914.00;;;14.40
19948;BMP180;10135;50.702;7.276;2023-12-29T06:53:39;98912.00;;;14.40
19948;BMP180;10135;50.702;7.276;2023-12-29T06:55:40;98912.00;;;14.40
19948;BMP180;10135;50.702;7.276;2023-12-29T06:57:40;98908.00;;;14.40
19948;BMP180;10135;50.702;7.276;2023-12-29T06:59:41;98911.00;;;14.40
19948;BMP180;10135;50.702;7.276;2023-12-29T07:01:41;98911.00;;;14.40
19948;BMP180;10135;50.702;7.276;2023-12-29T07:03:42;98908.00;;;14.40
19948;BMP180;10135;50.702;7.276;2023-12-29T07:05:43;98901.00;;;14.40
19948;BMP180;10135;50.702;7.276;2023-12-29T07:07:43;98906.00;;;14.40
19948;BMP180;10135;50.702;7.276;2023-12-29T07:09:44;98901.00;;;14.40
19948;BMP180;10135;50.702;7.276;2023-12-29T07:11:48;98899.00;;;14.40
19948;BMP180;10135;50.702;7.276;2023-12-29T07:13:50;98903.00;;;14.40
19948;BMP180;10135;50.702;7.276;2023-12-29T07:15:50;98897.00;;;14.40
19948;BMP180;10135;50.702;7.276;2023-12-29T07:17:51;98890.00;;;14.40
19948;BMP180;10135;50.702;7.276;2023-12-29T07:19:52;98891.00;;;14.40
19948;BMP180;10135;50.702;7.276;2023-12-29T07:21:52;98897.00;;;14.40
19948;BMP180;10135;50.702;7.276;2023-12-29T07:23:53;98891.00;;;14.40
19948;BMP180;10135;50.702;7.276;2023-12-29T07:25:53;98894.00;;;14.40
19948;BMP180;10135;50.702;7.276;2023-12-29T07:27:54;98893.00;;;14.40
19948;BMP180;10135;50.702;7.276;2023-12-29T07:29:55;98887.00;;;14.40
19948;BMP180;10135;50.702;7.276;2023-12-29T07:31:55;98885.00;;;14.40
19948;BMP180;10135;50.702;7.276;2023-12-29T07:33:56;98878.00;;;14.40
19948;BMP180;10135;50.702;7.276;2023-12-29T07:35:57;98876.00;;;14.40
19948;BMP180;10135;50.702;7.276;2023-12-29T07:37:58;98873.00;;;14.40
19948;BMP180;10135;50.702;7.276;2023-12-29T07:39:59;98876.00;;;14.40
19948;BMP180;10135;50.702;7.276;2023-12-29T07:42:00;98865.00;;;14.40
19948;BMP180;10135;50.702;7.276;2023-12-29T07:44:00;98884.00;;;14.40
19948;BMP180;10135;50.702;7.276;2023-12-29T07:46:02;98872.00;;;14.40
19948;BMP180;10135;50.702;7.276;2023-12-29T07:48:03;98885.00;;;14.30
19948;BMP180;10135;50.702;7.276;2023-12-29T07:50:07;98881.00;;;14.30
19948;BMP180;10135;50.702;7.276;2023-12-29T07:52:08;98884.00;;;14.40
19948;BMP180;10135;50.702;7.276;2023-12-29T07:54:09;98873.00;;;14.40
19948;BMP180;10135;50.702;7.276;2023-12-29T07:56:10;98876.00;;;14.40
19948;BMP180;10135;50.702;7.276;2023-12-29T07:58:11;98873.00;;;14.40
19948;BMP180;10135;50.702;7.276;2023-12-29T08:00:14;98881.00;;;14.40
19948;BMP180;10135;50.702;7.276;2023-12-29T08:02:15;98870.00;;;14.40
19948;BMP180;10135;50.702;7.276;2023-12-29T08:04:17;98865.00;;;14.40
19948;BMP180;10135;50.702;7.276;2023-12-29T08:06:17;98875.00;;;14.40
19948;BMP180;10135;50.702;7.276;2023-12-29T08:08:18;98875.00;;;14.40
19948;BMP180;10135;50.702;7.276;2023-12-29T08:10:18;98875.00;;;14.40
19948;BMP180;10135;50.702;7.276;2023-12-29T08:12:19;98887.00;;;14.40
19948;BMP180;10135;50.702;7.276;2023-12-29T08:14:20;98881.00;;;14.40
19948;BMP180;10135;50.702;7.276;2023-12-29T08:16:20;98873.00;;;14.40
19948;BMP180;10135;50.702;7.276;2023-12-29T08:18:21;98870.00;;;14.40
19948;BMP180;10135;50.702;7.276;2023-12-29T08:20:22;98877.00;;;14.40
19948;BMP180;10135;50.702;7.276;2023-12-29T08:22:24;98869.00;;;14.40
19948;BMP180;10135;50.702;7.276;2023-12-29T08:24:25;98873.00;;;14.40
19948;BMP180;10135;50.702;7.276;2023-12-29T08:26:26;98882.00;;;14.50
19948;BMP180;10135;50.702;7.276;2023-12-29T08:28:26;98874.00;;;14.50
19948;BMP180;10135;50.702;7.276;2023-12-29T08:30:27;98880.00;;;14.50
19948;BMP180;10135;50.702;7.276;2023-12-29T08:32:28;98880.00;;;14.50
19948;BMP180;10135;50.702;7.276;2023-12-29T08:34:28;98879.00;;;14.50
19948;BMP180;10135;50.702;7.276;2023-12-29T08:36:29;98872.00;;;14.50
19948;BMP180;10135;50.702;7.276;2023-12-29T08:38:30;98874.00;;;14.50
19948;BMP180;10135;50.702;7.276;2023-12-29T08:40:31;98882.00;;;14.50
19948;BMP180;10135;50.702;7.276;2023-12-29T08:42:32;98887.00;;;14.50
19948;BMP180;10135;50.702;7.276;2023-12-29T08:44:33;98886.00;;;14.50
19948;BMP180;10135;50.702;7.276;2023-12-29T08:46:34;98894.00;;;14.50
19948;BMP180;10135;50.702;7.276;2023-12-29T08:48:35;98891.00;;;14.50
19948;BMP180;10135;50.702;7.276;2023-12-29T08:50:35;98890.00;;;14.60
19948;BMP180;10135;50.702;7.276;2023-12-29T08:52:36;98892.00;;;14.60
19948;BMP180;10135;50.702;7.276;2023-12-29T08:54:38;98890.00;;;14.60
19948;BMP180;10135;50.702;7.276;2023-12-29T08:56:38;98886.00;;;14.60
19948;BMP180;10135;50.702;7.276;2023-12-29T08:58:40;98891.00;;;14.60
19948;BMP180;10135;50.702;7.276;2023-12-29T09:00:42;98889.00;;;14.60
19948;BMP180;10135;50.702;7.276;2023-12-29T09:02:42;98884.00;;;14.60
19948;BMP180;10135;50.702;7.276;2023-12-29T09:04:44;98892.00;;;14.60
19948;BMP180;10135;50.702;7.276;2023-12-29T09:06:44;98899.00;;;14.70
19948;BMP180;10135;50.702;7.276;2023-12-29T09:08:45;98901.00;;;14.70
19948;BMP180;10135;50.702;7.276;2023-12-29T09:10:46;98903.00;;;14.70
19948;BMP180;10135;50.702;7.276;2023-12-29T09:12:46;98903.00;;;14.70
19948;BMP180;10135;50.702;7.276;2023-12-29T09:14:47;98896.00;;;14.70
19948;BMP180;10135;50.702;7.276;2023-12-29T09:16:48;98891.00;;;14.70
19948;BMP180;10135;50.702;7.276;2023-12-29T09:18:48;98905.00;;;14.70
19948;BMP180;10135;50.702;7.276;2023-12-29T09:20:49;98900.00;;;14.70
19948;BMP180;10135;50.702;7.276;2023-12-29T09:22:50;98893.00;;;14.70
19948;BMP180;10135;50.702;7.276;2023-12-29T09:24:54;98892.00;;;14.70
19948;BMP180;10135;50.702;7.276;2023-12-29T09:26:55;98885.00;;;14.70
19948;BMP180;10135;50.702;7.276;2023-12-29T09:28:55;98892.00;;;14.80
19948;BMP180;10135;50.702;7.276;2023-12-29T09:30:56;98896.00;;;14.80
19948;BMP180;10135;50.702;7.276;2023-12-29T09:32:57;98898.00;;;14.80
19948;BMP180;10135;50.702;7.276;2023-12-29T09:34:57;98899.00;;;14.80
19948;BMP180;10135;50.702;7.276;2023-12-29T09:36:58;98913.00;;;14.80
19948;BMP180;10135;50.702;7.276;2023-12-29T09:38:58;98902.00;;;14.80
19948;BMP180;10135;50.702;7.276;2023-12-29T09:41:05;98905.00;;;14.80
19948;BMP180;10135;50.702;7.276;2023-12-29T09:43:09;98907.00;;;14.80
19948;BMP180;10135;50.702;7.276;2023-12-29T09:45:13;98908.00;;;14.80
19948;BMP180;10135;50.702;7.276;2023-12-29T09:47:17;98913.00;;;14.80
19948;BMP180;10135;50.702;7.276;2023-12-29T09:49:20;98906.00;;;14.80
19948;BMP180;10135;50.702;7.276;2023-12-29T09:51:22;98913.00;;;14.80
19948;BMP180;10135;50.702;7.276;2023-12-29T09:53:25;98920.00;;;14.90
19948;BMP180;10135;50.702;7.276;2023-12-29T09:55:27;98912.00;;;14.90
19948;BMP180;10135;50.702;7.276;2023-12-29T09:57:28;98920.00;;;14.90
19948;BMP180;10135;50.702;7.276;2023-12-29T09:59:30;98926.00;;;14.90
19948;BMP180;10135;50.702;7.276;2023-12-29T10:01:33;98929.00;;;14.90
19948;BMP180;10135;50.702;7.276;2023-12-29T10:03:34;98914.00;;;14.90
19948;BMP180;10135;50.702;7.276;2023-12-29T10:05:35;98927.00;;;15.00
19948;BMP180;10135;50.702;7.276;2023-12-29T10:07:37;98930.00;;;15.00
19948;BMP180;10135;50.702;7.276;2023-12-29T10:09:40;98918.00;;;15.00
19948;BMP180;10135;50.702;7.276;2023-12-29T10:11:45;98931.00;;;15.00
19948;BMP180;10135;50.702;7.276;2023-12-29T10:13:51;98927.00;;;15.00
19948;BMP180;10135;50.702;7.276;2023-12-29T10:20:38;98926.00;;;15.00
19948;BMP180;10135;50.702;7.276;2023-12-29T10:25:10;98919.00;;;15.00
19948;BMP180;10135;50.702;7.276;2023-12-29T10:27:11;98914.00;;;15.00
19948;BMP180;10135;50.702;7.276;2023-12-29T10:29:12;98907.00;;;15.00
19948;BMP180;10135;50.702;7.276;2023-12-29T10:31:16;98920.00;;;15.00
19948;BMP180;10135;50.702;7.276;2023-12-29T10:33:20;98916.00;;;15.00
19948;BMP180;10135;50.702;7.276;2023-12-29T10:35:21;98929.00;;;15.00
19948;BMP180;10135;50.702;7.276;2023-12-29T10:37:22;98920.00;;;15.00
19948;BMP180;10135;50.702;7.276;2023-12-29T10:39:24;98921.00;;;15.00
19948;BMP180;10135;50.702;7.276;2023-12-29T10:41:25;98922.00;;;15.10
19948;BMP180;10135;50.702;7.276;2023-12-29T10:43:26;98917.00;;;15.10
19948;BMP180;10135;50.702;7.276;2023-12-29T10:45:27;98913.00;;;15.10
19948;BMP180;10135;50.702;7.276;2023-12-29T10:47:28;98915.00;;;15.10
19948;BMP180;10135;50.702;7.276;2023-12-29T10:49:28;98913.00;;;15.10
19948;BMP180;10135;50.702;7.276;2023-12-29T10:51:29;98909.00;;;15.10
19948;BMP180;10135;50.702;7.276;2023-12-29T10:53:33;98910.00;;;15.10
19948;BMP180;10135;50.702;7.276;2023-12-29T10:55:34;98912.00;;;15.20
19948;BMP180;10135;50.702;7.276;2023-12-29T10:57:36;98908.00;;;15.20
19948;BMP180;10135;50.702;7.276;2023-12-29T10:59:38;98909.00;;;15.20
19948;BMP180;10135;50.702;7.276;2023-12-29T11:01:39;98905.00;;;15.20
19948;BMP180;10135;50.702;7.276;2023-12-29T11:03:40;98908.00;;;15.20
19948;BMP180;10135;50.702;7.276;2023-12-29T11:05:41;98909.00;;;15.20
19948;BMP180;10135;50.702;7.276;2023-12-29T11:07:41;98911.00;;;15.20
19948;BMP180;10135;50.702;7.276;2023-12-29T11:09:44;98910.00;;;15.20
19948;BMP180;10135;50.702;7.276;2023-12-29T11:11:44;98915.00;;;15.20
19948;BMP180;10135;50.702;7.276;2023-12-29T11:13:46;98919.00;;;15.20
19948;BMP180;10135;50.702;7.276;2023-12-29T11:15:48;98916.00;;;15.20
19948;BMP180;10135;50.702;7.276;2023-12-29T11:17:51;98917.00;;;15.20
19948;BMP180;10135;50.702;7.276;2023-12-29T11:19:53;98915.00;;;15.30
19948;BMP180;10135;50.702;7.276;2023-12-29T11:21:56;98914.00;;;15.30
19948;BMP180;10135;50.702;7.276;2023-12-29T11:23:56;98903.00;;;15.30
19948;BMP180;10135;50.702;7.276;2023-12-29T11:25:59;98917.00;;;15.30
19948;BMP180;10135;50.702;7.276;2023-12-29T11:28:00;98915.00;;;15.30
19948;BMP180;10135;50.702;7.276;2023-12-29T11:30:04;98918.00;;;15.30
19948;BMP180;10135;50.702;7.276;2023-12-29T11:32:13;98909.00;;;15.30
19948;BMP180;10135;50.702;7.276;2023-12-29T11:34:26;98915.00;;;15.30
19948;BMP180;10135;50.702;7.276;2023-12-29T11:36:34;98914.00;;;15.30
19948;BMP180;10135;50.702;7.276;2023-12-29T11:41:07;98917.00;;;15.30
19948;BMP180;10135;50.702;7.276;2023-12-29T11:43:17;98906.00;;;15.30
19948;BMP180;10135;50.702;7.276;2023-12-29T11:45:33;98900.00;;;15.30
19948;BMP180;10135;50.702;7.276;2023-12-29T11:47:38;98897.00;;;15.40
19948;BMP180;10135;50.702;7.276;2023-12-29T11:49:58;98894.00;;;15.30
19948;BMP180;10135;50.702;7.276;2023-12-29T11:52:02;98898.00;;;15.40
19948;BMP180;10135;50.702;7.276;2023-12-29T11:54:04;98884.00;;;15.40
19948;BMP180;10135;50.702;7.276;2023-12-29T11:56:15;98880.00;;;15.30
19948;BMP180;10135;50.702;7.276;2023-12-29T11:58:27;98889.00;;;15.30
19948;BMP180;10135;50.702;7.276;2023-12-29T12:00:47;98892.00;;;15.40
19948;BMP180;10135;50.702;7.276;2023-12-29T12:02:48;98891.00;;;15.40
19948;BMP180;10135;50.702;7.276;2023-12-29T12:04:51;98889.00;;;15.40
19948;BMP180;10135;50.702;7.276;2023-12-29T12:06:52;98886.00;;;15.40
19948;BMP180;10135;50.702;7.276;2023-12-29T12:09:16;98881.00;;;15.40
19948;BMP180;10135;50.702;7.276;2023-12-29T12:15:39;98872.00;;;15.40
19948;BMP180;10135;50.702;7.276;2023-12-29T12:17:40;98879.00;;;15.40
19948;BMP180;10135;50.702;7.276;2023-12-29T12:19:41;98867.00;;;15.40
19948;BMP180;10135;50.702;7.276;2023-12-29T12:21:46;98864.00;;;15.40
19948;BMP180;10135;50.702;7.276;2023-12-29T12:23:52;98873.00;;;15.40
19948;BMP180;10135;50.702;7.276;2023-12-29T12:25:58;98881.00;;;15.40
19948;BMP180;10135;50.702;7.276;2023-12-29T12:28:05;98871.00;;;15.40
19948;BMP180;10135;50.702;7.276;2023-12-29T12:30:06;98872.00;;;15.40
19948;BMP180;10135;50.702;7.276;2023-12-29T12:32:10;98867.00;;;15.40
19948;BMP180;10135;50.702;7.276;2023-12-29T12:34:11;98872.00;;;15.40
19948;BMP180;10135;50.702;7.276;2023-12-29T12:36:12;98860.00;;;15.40
19948;BMP180;10135;50.702;7.276;2023-12-29T12:38:15;98858.00;;;15.40
19948;BMP180;10135;50.702;7.276;2023-12-29T12:40:26;98849.00;;;15.40
19948;BMP180;10135;50.702;7.276;2023-12-29T12:42:30;98854.00;;;15.50
19948;BMP180;10135;50.702;7.276;2023-12-29T12:44:31;98844.00;;;15.40
19948;BMP180;10135;50.702;7.276;2023-12-29T12:46:35;98859.00;;;15.40
19948;BMP180;10135;50.702;7.276;2023-12-29T12:48:45;98848.00;;;15.40
19948;BMP180;10135;50.702;7.276;2023-12-29T12:50:47;98849.00;;;15.50
19948;BMP180;10135;50.702;7.276;2023-12-29T12:52:48;98855.00;;;15.50
19948;BMP180;10135;50.702;7.276;2023-12-29T12:54:52;98852.00;;;15.50
19948;BMP180;10135;50.702;7.276;2023-12-29T12:56:55;98849.00;;;15.50
19948;BMP180;10135;50.702;7.276;2023-12-29T12:58:57;98851.00;;;15.50
19948;BMP180;10135;50.702;7.276;2023-12-29T13:00:59;98852.00;;;15.50
19948;BMP180;10135;50.702;7.276;2023-12-29T13:03:01;98850.00;;;15.50
19948;BMP180;10135;50.702;7.276;2023-12-29T13:05:02;98843.00;;;15.50
19948;BMP180;10135;50.702;7.276;2023-12-29T13:07:08;98848.00;;;15.50
19948;BMP180;10135;50.702;7.276;2023-12-29T13:09:10;98854.00;;;15.50
19948;BMP180;10135;50.702;7.276;2023-12-29T13:11:13;98857.00;;;15.50
19948;BMP180;10135;50.702;7.276;2023-12-29T13:13:14;98844.00;;;15.50
19948;BMP180;10135;50.702;7.276;2023-12-29T13:15:15;98845.00;;;15.60
19948;BMP180;10135;50.702;7.276;2023-12-29T13:17:15;98855.00;;;15.50
19948;BMP180;10135;50.702;7.276;2023-12-29T13:19:23;98842.00;;;15.50
19948;BMP180;10135;50.702;7.276;2023-12-29T13:21:24;98848.00;;;15.50
19948;BMP180;10135;50.702;7.276;2023-12-29T13:23:29;98847.00;;;15.50
19948;BMP180;10135;50.702;7.276;2023-12-29T13:25:31;98840.00;;;15.50
19948;BMP180;10135;50.702;7.276;2023-12-29T13:27:32;98848.00;;;15.50
19948;BMP180;10135;50.702;7.276;2023-12-29T13:29:35;98834.00;;;15.50
19948;BMP180;10135;50.702;7.276;2023-12-29T13:31:37;98839.00;;;15.50
19948;BMP180;10135;50.702;7.276;2023-12-29T13:33:57;98842.00;;;15.50
19948;BMP180;10135;50.702;7.276;2023-12-29T13:39:21;98835.00;;;15.50
19948;BMP180;10135;50.702;7.276;2023-12-29T13:41:23;98839.00;;;15.50
19948;BMP180;10135;50.702;7.276;2023-12-29T13:43:28;98837.00;;;15.40
19948;BMP180;10135;50.702;7.276;2023-12-29T13:45:32;98831.00;;;15.40
19948;BMP180;10135;50.702;7.276;2023-12-29T13:47:34;98839.00;;;15.40
19948;BMP180;10135;50.702;7.276;2023-12-29T13:49:37;98830.00;;;15.40
19948;BMP180;10135;50.702;7.276;2023-12-29T13:51:38;98826.00;;;15.40
19948;BMP180;10135;50.702;7.276;2023-12-29T13:53:39;98826.00;;;15.40
19948;BMP180;10135;50.702;7.276;2023-12-29T13:55:39;98820.00;;;15.40
19948;BMP180;10135;50.702;7.276;2023-12-29T13:57:40;98825.00;;;15.30
19948;BMP180;10135;50.702;7.276;2023-12-29T13:59:42;98824.00;;;15.30
19948;BMP180;10135;50.702;7.276;2023-12-29T14:01:42;98820.00;;;15.30
19948;BMP180;10135;50.702;7.276;2023-12-29T14:03:59;98826.00;;;15.30
19948;BMP180;10135;50.702;7.276;2023-12-29T14:06:07;98813.00;;;15.30
19948;BMP180;10135;50.702;7.276;2023-12-29T14:08:19;98815.00;;;15.30
19948;BMP180;10135;50.702;7.276;2023-12-29T14:10:23;98814.00;;;15.30
19948;BMP180;10135;50.702;7.276;2023-12-29T14:12:24;98818.00;;;15.30
19948;BMP180;10135;50.702;7.276;2023-12-29T14:14:28;98817.00;;;15.30
19948;BMP180;10135;50.702;7.276;2023-12-29T14:16:28;98808.00;;;15.20
19948;BMP180;10135;50.702;7.276;2023-12-29T14:20:46;98814.00;;;15.20
19948;BMP180;10135;50.702;7.276;2023-12-29T14:22:47;98819.00;;;15.20
19948;BMP180;10135;50.702;7.276;2023-12-29T14:25:07;98813.00;;;15.10
19948;BMP180;10135;50.702;7.276;2023-12-29T14:27:12;98810.00;;;15.20
19948;BMP180;10135;50.702;7.276;2023-12-29T14:29:13;98810.00;;;15.10
19948;BMP180;10135;50.702;7.276;2023-12-29T14:31:14;98811.00;;;15.10
19948;BMP180;10135;50.702;7.276;2023-12-29T14:33:14;98813.00;;;15.10
19948;BMP180;10135;50.702;7.276;2023-12-29T14:35:15;98812.00;;;15.10
19948;BMP180;10135;50.702;7.276;2023-12-29T14:37:16;98817.00;;;15.10
19948;BMP180;10135;50.702;7.276;2023-12-29T14:39:17;98805.00;;;15.10
19948;BMP180;10135;50.702;7.276;2023-12-29T14:41:17;98808.00;;;15.10
19948;BMP180;10135;50.702;7.276;2023-12-29T14:43:18;98820.00;;;15.10
19948;BMP180;10135;50.702;7.276;2023-12-29T14:45:19;98815.00;;;15.10
19948;BMP180;10135;50.702;7.276;2023-12-29T14:47:20;98820.00;;;15.10
19948;BMP180;10135;50.702;7.276;2023-12-29T14:49:20;98809.00;;;15.10
19948;BMP180;10135;50.702;7.276;2023-12-29T14:51:21;98810.00;;;15.10
19948;BMP180;10135;50.702;7.276;2023-12-29T14:53:22;98814.00;;;15.10
19948;BMP180;10135;50.702;7.276;2023-12-29T14:55:23;98815.00;;;15.10
19948;BMP180;10135;50.702;7.276;2023-12-29T14:57:25;98821.00;;;15.10
19948;BMP180;10135;50.702;7.276;2023-12-29T14:59:25;98824.00;;;15.10
19948;BMP180;10135;50.702;7.276;2023-12-29T15:01:26;98814.00;;;15.10
19948;BMP180;10135;50.702;7.276;2023-12-29T15:03:27;98817.00;;;15.10
19948;BMP180;10135;50.702;7.276;2023-12-29T15:05:28;98810.00;;;15.10
19948;BMP180;10135;50.702;7.276;2023-12-29T15:07:28;98819.00;;;15.10
19948;BMP180;10135;50.702;7.276;2023-12-29T15:09:30;98802.00;;;15.00
19948;BMP180;10135;50.702;7.276;2023-12-29T15:11:31;98810.00;;;15.00
19948;BMP180;10135;50.702;7.276;2023-12-29T15:13:33;98807.00;;;15.00
19948;BMP180;10135;50.702;7.276;2023-12-29T15:15:34;98813.00;;;15.00
19948;BMP180;10135;50.702;7.276;2023-12-29T15:17:37;98814.00;;;15.00
19948;BMP180;10135;50.702;7.276;2023-12-29T15:19:38;98814.00;;;15.00
19948;BMP180;10135;50.702;7.276;2023-12-29T15:21:39;98806.00;;;15.00
19948;BMP180;10135;50.702;7.276;2023-12-29T15:23:39;98807.00;;;15.00
19948;BMP180;10135;50.702;7.276;2023-12-29T15:25:40;98794.00;;;15.00
19948;BMP180;10135;50.702;7.276;2023-12-29T15:27:42;98796.00;;;15.00
19948;BMP180;10135;50.702;7.276;2023-12-29T15:29:43;98799.00;;;15.00
19948;BMP180;10135;50.702;7.276;2023-12-29T15:31:44;98797.00;;;14.90
19948;BMP180;10135;50.702;7.276;2023-12-29T15:33:45;98800.00;;;15.00
19948;BMP180;10135;50.702;7.276;2023-12-29T15:35:46;98796.00;;;14.90
19948;BMP180;10135;50.702;7.276;2023-12-29T15:37:47;98776.00;;;15.00
19948;BMP180;10135;50.702;7.276;2023-12-29T15:39:47;98788.00;;;14.90
19948;BMP180;10135;50.702;7.276;2023-12-29T15:41:48;98788.00;;;14.90
19948;BMP180;10135;50.702;7.276;2023-12-29T15:43:49;98788.00;;;14.90
19948;BMP180;10135;50.702;7.276;2023-12-29T15:45:50;98791.00;;;14.90
19948;BMP180;10135;50.702;7.276;2023-12-29T15:47:50;98785.00;;;14.90
19948;BMP180;10135;50.702;7.276;2023-12-29T15:49:51;98779.00;;;14.90
19948;BMP180;10135;50.702;7.276;2023-12-29T15:51:52;98796.00;;;14.90
19948;BMP180;10135;50.702;7.276;2023-12-29T15:53:53;98781.00;;;14.90
19948;BMP180;10135;50.702;7.276;2023-12-29T15:55:56;98781.00;;;14.90
19948;BMP180;10135;50.702;7.276;2023-12-29T15:57:56;98784.00;;;14.90
19948;BMP180;10135;50.702;7.276;2023-12-29T15:59:57;98783.00;;;14.90
19948;BMP180;10135;50.702;7.276;2023-12-29T16:01:59;98774.00;;;14.90
19948;BMP180;10135;50.702;7.276;2023-12-29T16:03:59;98765.00;;;14.90
19948;BMP180;10135;50.702;7.276;2023-12-29T16:06:00;98755.00;;;14.90
19948;BMP180;10135;50.702;7.276;2023-12-29T16:08:01;98771.00;;;14.90
19948;BMP180;10135;50.702;7.276;2023-12-29T16:10:03;98766.00;;;14.90
19948;BMP180;10135;50.702;7.276;2023-12-29T16:12:04;98772.00;;;14.90
19948;BMP180;10135;50.702;7.276;2023-12-29T16:14:05;98763.00;;;14.90
19948;BMP180;10135;50.702;7.276;2023-12-29T16:16:06;98769.00;;;14.90
19948;BMP180;10135;50.702;7.276;2023-12-29T16:18:06;98767.00;;;14.90
19948;BMP180;10135;50.702;7.276;2023-12-29T16:20:08;98767.00;;;14.90
19948;BMP180;10135;50.702;7.276;2023-12-29T16:22:08;98765.00;;;14.90
19948;BMP180;10135;50.702;7.276;2023-12-29T16:24:10;98763.00;;;14.90
19948;BMP180;10135;50.702;7.276;2023-12-29T16:26:13;98755.00;;;14.90
19948;BMP180;10135;50.702;7.276;2023-12-29T16:28:13;98769.00;;;14.90
19948;BMP180;10135;50.702;7.276;2023-12-29T16:30:14;98762.00;;;14.90
19948;BMP180;10135;50.702;7.276;2023-12-29T16:32:22;98763.00;;;14.80
19948;BMP180;10135;50.702;7.276;2023-12-29T16:34:23;98756.00;;;14.90
19948;BMP180;10135;50.702;7.276;2023-12-29T16:36:24;98758.00;;;14.90
19948;BMP180;10135;50.702;7.276;2023-12-29T16:38:24;98757.00;;;14.90
19948;BMP180;10135;50.702;7.276;2023-12-29T16:40:25;98761.00;;;14.90
19948;BMP180;10135;50.702;7.276;2023-12-29T16:42:25;98770.00;;;14.90
19948;BMP180;10135;50.702;7.276;2023-12-29T16:44:26;98773.00;;;14.90
19948;BMP180;10135;50.702;7.276;2023-12-29T16:46:27;98776.00;;;14.90
19948;BMP180;10135;50.702;7.276;2023-12-29T16:48:27;98771.00;;;14.90
19948;BMP180;10135;50.702;7.276;2023-12-29T16:50:28;98768.00;;;14.90
19948;BMP180;10135;50.702;7.276;2023-12-29T16:52:29;98770.00;;;14.90
19948;BMP180;10135;50.702;7.276;2023-12-29T16:54:29;98762.00;;;14.90
19948;BMP180;10135;50.702;7.276;2023-12-29T16:56:33;98765.00;;;14.90
19948;BMP180;10135;50.702;7.276;2023-12-29T16:58:34;98766.00;;;14.80
19948;BMP180;10135;50.702;7.276;2023-12-29T17:00:38;98763.00;;;14.90
19948;BMP180;10135;50.702;7.276;2023-12-29T17:02:41;98761.00;;;14.90
19948;BMP180;10135;50.702;7.276;2023-12-29T17:04:41;98771.00;;;14.90
19948;BMP180;10135;50.702;7.276;2023-12-29T17:06:42;98770.00;;;14.90
19948;BMP180;10135;50.702;7.276;2023-12-29T17:08:43;98750.00;;;14.90
19948;BMP180;10135;50.702;7.276;2023-12-29T17:10:43;98760.00;;;14.90
19948;BMP180;10135;50.702;7.276;2023-12-29T17:12:44;98765.00;;;14.90
19948;BMP180;10135;50.702;7.276;2023-12-29T17:14:44;98776.00;;;14.90
19948;BMP180;10135;50.702;7.276;2023-12-29T17:16:45;98771.00;;;14.90
19948;BMP180;10135;50.702;7.276;2023-12-29T17:18:46;98758.00;;;14.90
19948;BMP180;10135;50.702;7.276;2023-12-29T17:20:46;98769.00;;;14.80
19948;BMP180;10135;50.702;7.276;2023-12-29T17:22:47;98770.00;;;14.90
19948;BMP180;10135;50.702;7.276;2023-12-29T17:24:48;98772.00;;;14.90
19948;BMP180;10135;50.702;7.276;2023-12-29T17:26:48;98767.00;;;14.80
19948;BMP180;10135;50.702;7.276;2023-12-29T17:28:49;98752.00;;;14.80
19948;BMP180;10135;50.702;7.276;2023-12-29T17:30:51;98765.00;;;14.80
19948;BMP180;10135;50.702;7.276;2023-12-29T17:32:52;98755.00;;;14.80
19948;BMP180;10135;50.702;7.276;2023-12-29T17:34:52;98771.00;;;14.80
19948;BMP180;10135;50.702;7.276;2023-12-29T17:36:53;98767.00;;;14.80
19948;BMP180;10135;50.702;7.276;2023-12-29T17:38:53;98761.00;;;14.80
19948;BMP180;10135;50.702;7.276;2023-12-29T17:40:56;98767.00;;;14.80
19948;BMP180;10135;50.702;7.276;2023-12-29T17:42:56;98780.00;;;14.80
19948;BMP180;10135;50.702;7.276;2023-12-29T17:44:57;98778.00;;;14.80
19948;BMP180;10135;50.702;7.276;2023-12-29T17:46:57;98779.00;;;14.80
19948;BMP180;10135;50.702;7.276;2023-12-29T17:48:58;98783.00;;;14.80
19948;BMP180;10135;50.702;7.276;2023-12-29T17:50:59;98780.00;;;14.80
19948;BMP180;10135;50.702;7.276;2023-12-29T17:52:59;98784.00;;;14.80
19948;BMP180;10135;50.702;7.276;2023-12-29T17:55:00;98787.00;;;14.80
19948;BMP180;10135;50.702;7.276;2023-12-29T17:57:01;98794.00;;;14.80
19948;BMP180;10135;50.702;7.276;2023-12-29T17:59:01;98793.00;;;14.80
19948;BMP180;10135;50.702;7.276;2023-12-29T18:01:02;98797.00;;;14.80
19948;BMP180;10135;50.702;7.276;2023-12-29T18:03:03;98797.00;;;14.80